EWG25K EDDL-EDDB
Flight info
| Callsign | EWG25K |
|---|---|
| Flight time | 0h 46m |
| Altitude | 35000 |
| Route | MEVEL1Z MEVEL L179 MISRI Z851 ROBEG DCT BATEL T207 OGBER OGBER1R |
| Aircraft | A320/M-SDE2E3FGIJ1RWXYZ/HB1 |
Departure
| Time | 2026-05-05 16:32 |
|---|---|
| Airport | Düsseldorf Airport (EDDL) |
Arrival
| Time | 2026-05-05 17:18 |
|---|---|
| Airport | Berlin Brandenburg Airport (EDDB) |
| Time | Latitude | Longitude | Altitude | Speed | Heading |
|---|---|---|---|---|---|
| 2026-05-05 15:51 | 51.28106 | 6.76719 | 127 ft | 0 kts | 276° |
| 2026-05-05 16:23 | 51.28104 | 6.76743 | 124 ft | 4 kts | 278° |
| 2026-05-05 16:23 | 51.28085 | 6.76802 | 124 ft | 3 kts | 17° |
| 2026-05-05 16:24 | 51.28062 | 6.76790 | 125 ft | 2 kts | 18° |
| 2026-05-05 16:24 | 51.28061 | 6.76789 | 126 ft | 0 kts | 18° |
| 2026-05-05 16:27 | 51.28061 | 6.76790 | 126 ft | 1 kts | 18° |
| 2026-05-05 16:27 | 51.28093 | 6.76806 | 125 ft | 7 kts | 18° |
| 2026-05-05 16:27 | 51.28146 | 6.76831 | 129 ft | 12 kts | 13° |
| 2026-05-05 16:28 | 51.28247 | 6.76850 | 129 ft | 16 kts | 3° |
| 2026-05-05 16:28 | 51.28331 | 6.76777 | 124 ft | 15 kts | 321° |
| 2026-05-05 16:28 | 51.28413 | 6.76652 | 124 ft | 16 kts | 283° |
| 2026-05-05 16:28 | 51.28359 | 6.76502 | 123 ft | 16 kts | 233° |
| 2026-05-05 16:29 | 51.28290 | 6.76356 | 124 ft | 15 kts | 233° |
| 2026-05-05 16:29 | 51.28225 | 6.76220 | 126 ft | 20 kts | 232° |
| 2026-05-05 16:29 | 51.28124 | 6.76007 | 127 ft | 25 kts | 233° |
| 2026-05-05 16:29 | 51.28015 | 6.75782 | 126 ft | 26 kts | 232° |
| 2026-05-05 16:30 | 51.27906 | 6.75551 | 126 ft | 23 kts | 232° |
| 2026-05-05 16:30 | 51.27841 | 6.75377 | 126 ft | 11 kts | 281° |
| 2026-05-05 16:30 | 51.27883 | 6.75316 | 122 ft | 0 kts | 332° |
| 2026-05-05 16:31 | 51.27888 | 6.75312 | 125 ft | 5 kts | 332° |
| 2026-05-05 16:31 | 51.27953 | 6.75258 | 122 ft | 12 kts | 335° |
| 2026-05-05 16:31 | 51.28008 | 6.75302 | 122 ft | 10 kts | 51° |
| 2026-05-05 16:31 | 51.28146 | 6.75588 | 126 ft | 67 kts | 52° |
| 2026-05-05 16:32 | 51.28561 | 6.76450 | 126 ft | 129 kts | 53° |
| 2026-05-05 16:32 | 51.29215 | 6.77737 | 367 ft | 157 kts | 49° |
| 2026-05-05 16:32 | 51.29877 | 6.79120 | 1166 ft | 157 kts | 51° |
| 2026-05-05 16:32 | 51.30518 | 6.80527 | 1995 ft | 156 kts | 52° |
| 2026-05-05 16:33 | 51.31207 | 6.82041 | 2392 ft | 180 kts | 53° |
| 2026-05-05 16:33 | 51.31975 | 6.83733 | 2826 ft | 197 kts | 53° |
| 2026-05-05 16:33 | 51.32835 | 6.85623 | 3223 ft | 222 kts | 54° |
| 2026-05-05 16:33 | 51.33789 | 6.87715 | 3661 ft | 246 kts | 53° |
| 2026-05-05 16:34 | 51.34807 | 6.89605 | 4221 ft | 259 kts | 38° |
| 2026-05-05 16:34 | 51.36458 | 6.90825 | 4994 ft | 268 kts | 9° |
| 2026-05-05 16:34 | 51.38334 | 6.91097 | 5840 ft | 274 kts | 6° |
| 2026-05-05 16:34 | 51.40243 | 6.91527 | 6685 ft | 279 kts | 9° |
| 2026-05-05 16:35 | 51.42176 | 6.92093 | 7498 ft | 285 kts | 11° |
| 2026-05-05 16:35 | 51.44141 | 6.92702 | 8306 ft | 291 kts | 11° |
| 2026-05-05 16:35 | 51.46149 | 6.93314 | 9164 ft | 296 kts | 10° |
| 2026-05-05 16:35 | 51.48184 | 6.93908 | 9988 ft | 300 kts | 8° |
| 2026-05-05 16:36 | 51.50282 | 6.94151 | 10631 ft | 309 kts | 359° |
| 2026-05-05 16:36 | 51.52485 | 6.94652 | 10888 ft | 333 kts | 20° |
| 2026-05-05 16:36 | 51.54631 | 6.96278 | 11365 ft | 347 kts | 27° |
| 2026-05-05 16:36 | 51.56771 | 6.98152 | 12049 ft | 354 kts | 30° |
| 2026-05-05 16:37 | 51.58921 | 7.00105 | 12820 ft | 357 kts | 30° |
| 2026-05-05 16:37 | 51.61098 | 7.02069 | 13585 ft | 361 kts | 30° |
| 2026-05-05 16:37 | 51.63313 | 7.04020 | 14244 ft | 365 kts | 29° |
| 2026-05-05 16:37 | 51.65555 | 7.05943 | 14923 ft | 367 kts | 28° |
| 2026-05-05 16:38 | 51.67853 | 7.07801 | 15545 ft | 372 kts | 26° |
| 2026-05-05 16:38 | 51.70204 | 7.09577 | 16221 ft | 374 kts | 25° |
| 2026-05-05 16:38 | 51.72587 | 7.11320 | 16863 ft | 378 kts | 25° |
| 2026-05-05 16:38 | 51.75001 | 7.13077 | 17487 ft | 382 kts | 25° |
| 2026-05-05 16:39 | 51.77427 | 7.14858 | 18142 ft | 385 kts | 25° |
| 2026-05-05 16:39 | 51.79874 | 7.16682 | 18680 ft | 389 kts | 25° |
| 2026-05-05 16:39 | 51.82307 | 7.18632 | 19215 ft | 392 kts | 32° |
| 2026-05-05 16:39 | 51.84520 | 7.21225 | 19728 ft | 395 kts | 43° |
| 2026-05-05 16:40 | 51.86403 | 7.24472 | 20254 ft | 397 kts | 54° |
| 2026-05-05 16:40 | 51.87882 | 7.28243 | 20769 ft | 399 kts | 64° |
| 2026-05-05 16:40 | 51.89033 | 7.32338 | 21264 ft | 400 kts | 74° |
| 2026-05-05 16:40 | 51.89874 | 7.36649 | 21715 ft | 404 kts | 75° |
| 2026-05-05 16:41 | 51.90711 | 7.41016 | 22202 ft | 408 kts | 75° |
| 2026-05-05 16:41 | 51.91546 | 7.45407 | 22689 ft | 411 kts | 75° |
| 2026-05-05 16:41 | 51.92390 | 7.49866 | 23165 ft | 414 kts | 76° |
| 2026-05-05 16:41 | 51.93230 | 7.54289 | 23604 ft | 418 kts | 76° |
| 2026-05-05 16:42 | 51.94099 | 7.58860 | 24002 ft | 421 kts | 76° |
| 2026-05-05 16:42 | 51.94954 | 7.63353 | 24389 ft | 424 kts | 76° |
| 2026-05-05 16:42 | 51.95822 | 7.67933 | 24775 ft | 427 kts | 76° |
| 2026-05-05 16:42 | 51.96694 | 7.72557 | 25157 ft | 430 kts | 76° |
| 2026-05-05 16:43 | 51.97567 | 7.77209 | 25535 ft | 433 kts | 76° |
| 2026-05-05 16:43 | 51.98440 | 7.81871 | 25907 ft | 436 kts | 76° |
| 2026-05-05 16:43 | 51.99324 | 7.86594 | 26250 ft | 439 kts | 76° |
| 2026-05-05 16:43 | 52.00213 | 7.91342 | 26586 ft | 442 kts | 76° |
| 2026-05-05 16:44 | 52.01104 | 7.96104 | 26940 ft | 445 kts | 76° |
| 2026-05-05 16:44 | 52.02006 | 8.00937 | 27287 ft | 449 kts | 75° |
| 2026-05-05 16:44 | 52.02911 | 8.05812 | 27592 ft | 453 kts | 75° |
| 2026-05-05 16:44 | 52.03818 | 8.10731 | 27928 ft | 456 kts | 75° |
| 2026-05-05 16:45 | 52.04728 | 8.15682 | 28264 ft | 459 kts | 75° |
| 2026-05-05 16:45 | 52.05644 | 8.20661 | 28602 ft | 462 kts | 75° |
| 2026-05-05 16:45 | 52.06566 | 8.25679 | 28934 ft | 465 kts | 75° |
| 2026-05-05 16:45 | 52.07493 | 8.30732 | 29256 ft | 468 kts | 75° |
| 2026-05-05 16:46 | 52.08422 | 8.35816 | 29580 ft | 471 kts | 75° |
| 2026-05-05 16:46 | 52.09352 | 8.40934 | 29868 ft | 473 kts | 75° |
| 2026-05-05 16:46 | 52.10286 | 8.46084 | 30140 ft | 476 kts | 76° |
| 2026-05-05 16:46 | 52.11222 | 8.51264 | 30389 ft | 478 kts | 76° |
| 2026-05-05 16:47 | 52.12160 | 8.56463 | 30648 ft | 480 kts | 76° |
| 2026-05-05 16:47 | 52.13101 | 8.61686 | 30912 ft | 482 kts | 76° |
| 2026-05-05 16:47 | 52.14046 | 8.66938 | 31179 ft | 484 kts | 76° |
| 2026-05-05 16:47 | 52.14986 | 8.72207 | 31470 ft | 485 kts | 77° |
| 2026-05-05 16:48 | 52.15925 | 8.77475 | 31850 ft | 484 kts | 77° |
| 2026-05-05 16:48 | 52.16861 | 8.82736 | 32215 ft | 484 kts | 77° |
| 2026-05-05 16:48 | 52.17797 | 8.88002 | 32572 ft | 483 kts | 77° |
| 2026-05-05 16:48 | 52.18727 | 8.93258 | 32960 ft | 482 kts | 77° |
| 2026-05-05 16:49 | 52.19657 | 8.98517 | 33197 ft | 485 kts | 77° |
| 2026-05-05 16:49 | 52.20273 | 9.02025 | 33347 ft | 487 kts | 77° |
| 2026-05-05 16:49 | 52.21205 | 9.07338 | 33650 ft | 487 kts | 77° |
| 2026-05-05 16:49 | 52.22134 | 9.12648 | 33959 ft | 488 kts | 77° |
| 2026-05-05 16:50 | 52.23064 | 9.17970 | 34256 ft | 487 kts | 77° |
| 2026-05-05 16:50 | 52.23986 | 9.23276 | 34520 ft | 487 kts | 77° |
| 2026-05-05 16:50 | 52.24907 | 9.28591 | 34757 ft | 486 kts | 77° |
| 2026-05-05 16:50 | 52.25824 | 9.33892 | 34849 ft | 483 kts | 77° |
| 2026-05-05 16:51 | 52.27632 | 9.44376 | 34870 ft | 478 kts | 77° |
| 2026-05-05 16:51 | 52.29419 | 9.54807 | 34867 ft | 477 kts | 77° |
| 2026-05-05 16:52 | 52.31194 | 9.65241 | 34889 ft | 477 kts | 77° |
| 2026-05-05 16:52 | 52.32954 | 9.75685 | 34894 ft | 476 kts | 78° |
| 2026-05-05 16:53 | 52.34704 | 9.86138 | 34889 ft | 477 kts | 78° |
| 2026-05-05 16:53 | 52.36436 | 9.96517 | 34876 ft | 478 kts | 77° |
| 2026-05-05 16:54 | 52.38179 | 10.07025 | 34870 ft | 479 kts | 77° |
| 2026-05-05 16:54 | 52.39914 | 10.17560 | 34869 ft | 480 kts | 77° |
| 2026-05-05 16:55 | 52.41652 | 10.28146 | 33982 ft | 488 kts | 78° |
| 2026-05-05 16:55 | 52.42539 | 10.33584 | 33021 ft | 494 kts | 77° |
| 2026-05-05 16:55 | 52.43415 | 10.38951 | 32658 ft | 484 kts | 77° |
| 2026-05-05 16:56 | 52.44279 | 10.44266 | 32004 ft | 481 kts | 77° |
| 2026-05-05 16:56 | 52.45133 | 10.49543 | 31394 ft | 478 kts | 77° |
| 2026-05-05 16:56 | 52.45979 | 10.54790 | 30822 ft | 474 kts | 77° |
| 2026-05-05 16:56 | 52.46815 | 10.60003 | 30230 ft | 471 kts | 77° |
| 2026-05-05 16:57 | 52.47643 | 10.65194 | 29605 ft | 469 kts | 77° |
| 2026-05-05 16:57 | 52.48463 | 10.70339 | 29038 ft | 464 kts | 77° |
| 2026-05-05 16:57 | 52.49273 | 10.75425 | 28484 ft | 459 kts | 77° |
| 2026-05-05 16:57 | 52.50075 | 10.80457 | 27941 ft | 454 kts | 77° |
| 2026-05-05 16:58 | 52.50867 | 10.85444 | 27416 ft | 448 kts | 77° |
| 2026-05-05 16:58 | 52.51645 | 10.90371 | 26905 ft | 444 kts | 77° |
| 2026-05-05 16:58 | 52.52412 | 10.95256 | 26406 ft | 439 kts | 77° |
| 2026-05-05 16:58 | 52.53167 | 11.00083 | 25912 ft | 434 kts | 77° |
| 2026-05-05 16:59 | 52.53908 | 11.04862 | 25401 ft | 430 kts | 77° |
| 2026-05-05 16:59 | 52.54566 | 11.09601 | 24983 ft | 422 kts | 83° |
| 2026-05-05 16:59 | 52.54794 | 11.14320 | 24844 ft | 407 kts | 90° |
| 2026-05-05 16:59 | 52.54897 | 11.18934 | 24738 ft | 403 kts | 90° |
| 2026-05-05 17:00 | 52.55007 | 11.23585 | 23859 ft | 412 kts | 90° |
| 2026-05-05 17:00 | 52.55122 | 11.28285 | 23408 ft | 408 kts | 90° |
| 2026-05-05 17:00 | 52.55237 | 11.32904 | 23021 ft | 401 kts | 90° |
| 2026-05-05 17:00 | 52.55343 | 11.37434 | 22663 ft | 393 kts | 90° |
| 2026-05-05 17:01 | 52.55440 | 11.41883 | 22309 ft | 386 kts | 90° |
| 2026-05-05 17:01 | 52.55531 | 11.46262 | 21956 ft | 381 kts | 90° |
| 2026-05-05 17:01 | 52.55620 | 11.50600 | 21613 ft | 378 kts | 90° |
| 2026-05-05 17:01 | 52.55706 | 11.54841 | 21277 ft | 375 kts | 90° |
| 2026-05-05 17:02 | 52.55793 | 11.59123 | 20937 ft | 374 kts | 90° |
| 2026-05-05 17:02 | 52.55875 | 11.63354 | 20722 ft | 365 kts | 90° |
| 2026-05-05 17:02 | 52.55659 | 11.67430 | 20486 ft | 354 kts | 107° |
| 2026-05-05 17:02 | 52.54963 | 11.71284 | 20232 ft | 351 kts | 109° |
| 2026-05-05 17:03 | 52.54244 | 11.75111 | 19998 ft | 350 kts | 109° |
| 2026-05-05 17:03 | 52.53526 | 11.78916 | 19733 ft | 348 kts | 109° |
| 2026-05-05 17:03 | 52.52805 | 11.82709 | 19318 ft | 347 kts | 109° |
| 2026-05-05 17:03 | 52.52081 | 11.86485 | 18881 ft | 347 kts | 109° |
| 2026-05-05 17:04 | 52.51352 | 11.90265 | 18443 ft | 347 kts | 109° |
| 2026-05-05 17:04 | 52.50630 | 11.94021 | 18170 ft | 342 kts | 109° |
| 2026-05-05 17:04 | 52.49919 | 11.97711 | 17858 ft | 337 kts | 109° |
| 2026-05-05 17:04 | 52.49215 | 12.01373 | 17485 ft | 335 kts | 109° |
| 2026-05-05 17:05 | 52.48518 | 12.04988 | 16950 ft | 332 kts | 110° |
| 2026-05-05 17:05 | 52.47823 | 12.08602 | 16340 ft | 332 kts | 110° |
| 2026-05-05 17:05 | 52.47125 | 12.12228 | 15903 ft | 334 kts | 110° |
| 2026-05-05 17:05 | 52.46424 | 12.15855 | 15499 ft | 334 kts | 110° |
| 2026-05-05 17:06 | 52.45720 | 12.19482 | 15165 ft | 332 kts | 110° |
| 2026-05-05 17:06 | 52.45021 | 12.23068 | 14772 ft | 332 kts | 110° |
| 2026-05-05 17:06 | 52.44318 | 12.26667 | 14515 ft | 328 kts | 110° |
| 2026-05-05 17:06 | 52.43633 | 12.30190 | 14288 ft | 323 kts | 110° |
| 2026-05-05 17:07 | 52.42953 | 12.33675 | 13991 ft | 320 kts | 110° |
| 2026-05-05 17:07 | 52.42273 | 12.37144 | 13688 ft | 319 kts | 110° |
| 2026-05-05 17:07 | 52.41595 | 12.40591 | 13342 ft | 317 kts | 110° |
| 2026-05-05 17:07 | 52.40921 | 12.44018 | 13002 ft | 315 kts | 110° |
| 2026-05-05 17:08 | 52.40250 | 12.47427 | 12662 ft | 313 kts | 110° |
| 2026-05-05 17:08 | 52.39584 | 12.50807 | 12321 ft | 311 kts | 110° |
| 2026-05-05 17:08 | 52.38920 | 12.54165 | 11991 ft | 309 kts | 110° |
| 2026-05-05 17:08 | 52.38262 | 12.57509 | 11654 ft | 307 kts | 109° |
| 2026-05-05 17:09 | 52.37605 | 12.60826 | 11320 ft | 305 kts | 109° |
| 2026-05-05 17:09 | 52.36950 | 12.64119 | 10988 ft | 304 kts | 109° |
| 2026-05-05 17:09 | 52.36303 | 12.67366 | 10826 ft | 295 kts | 109° |
| 2026-05-05 17:09 | 52.35676 | 12.70508 | 10698 ft | 286 kts | 109° |
| 2026-05-05 17:10 | 52.35068 | 12.73557 | 10579 ft | 277 kts | 110° |
| 2026-05-05 17:10 | 52.34479 | 12.76509 | 10446 ft | 269 kts | 110° |
| 2026-05-05 17:10 | 52.33901 | 12.79398 | 10204 ft | 266 kts | 109° |
| 2026-05-05 17:10 | 52.33325 | 12.82265 | 9923 ft | 265 kts | 110° |
| 2026-05-05 17:11 | 52.32749 | 12.85121 | 9627 ft | 264 kts | 110° |
| 2026-05-05 17:11 | 52.32177 | 12.87962 | 9291 ft | 263 kts | 110° |
| 2026-05-05 17:11 | 52.31607 | 12.90791 | 8982 ft | 261 kts | 110° |
| 2026-05-05 17:11 | 52.31040 | 12.93600 | 8660 ft | 259 kts | 109° |
| 2026-05-05 17:12 | 52.30476 | 12.96385 | 8269 ft | 260 kts | 109° |
| 2026-05-05 17:12 | 52.29890 | 12.99272 | 7540 ft | 274 kts | 110° |
| 2026-05-05 17:12 | 52.29274 | 13.02289 | 6814 ft | 283 kts | 109° |
| 2026-05-05 17:12 | 52.28651 | 13.05345 | 6072 ft | 284 kts | 109° |
| 2026-05-05 17:13 | 52.28030 | 13.08398 | 5306 ft | 283 kts | 108° |
| 2026-05-05 17:13 | 52.27416 | 13.11449 | 4605 ft | 280 kts | 105° |
| 2026-05-05 17:13 | 52.27167 | 13.14484 | 4273 ft | 262 kts | 87° |
| 2026-05-05 17:13 | 52.27468 | 13.17311 | 3951 ft | 246 kts | 70° |
| 2026-05-05 17:14 | 52.28069 | 13.19850 | 3635 ft | 235 kts | 68° |
| 2026-05-05 17:14 | 52.28658 | 13.22280 | 3329 ft | 225 kts | 67° |
| 2026-05-05 17:14 | 52.29220 | 13.24613 | 3040 ft | 217 kts | 68° |
| 2026-05-05 17:14 | 52.29761 | 13.26863 | 2750 ft | 209 kts | 68° |
| 2026-05-05 17:15 | 52.30283 | 13.29035 | 2484 ft | 202 kts | 68° |
| 2026-05-05 17:15 | 52.30775 | 13.31086 | 2229 ft | 183 kts | 67° |
| 2026-05-05 17:15 | 52.31213 | 13.32916 | 1995 ft | 164 kts | 66° |
| 2026-05-05 17:15 | 52.31606 | 13.34559 | 1765 ft | 147 kts | 68° |
| 2026-05-05 17:16 | 52.31964 | 13.36054 | 1577 ft | 137 kts | 66° |
| 2026-05-05 17:16 | 52.32292 | 13.37504 | 1405 ft | 136 kts | 67° |
| 2026-05-05 17:16 | 52.32625 | 13.38941 | 1176 ft | 134 kts | 65° |
| 2026-05-05 17:16 | 52.32984 | 13.40337 | 958 ft | 133 kts | 64° |
| 2026-05-05 17:17 | 52.33324 | 13.41731 | 809 ft | 133 kts | 69° |
| 2026-05-05 17:17 | 52.33670 | 13.43158 | 630 ft | 133 kts | 68° |
| 2026-05-05 17:17 | 52.34005 | 13.44570 | 481 ft | 134 kts | 66° |
| 2026-05-05 17:17 | 52.34333 | 13.45979 | 314 ft | 132 kts | 65° |
| 2026-05-05 17:18 | 52.34665 | 13.47368 | 171 ft | 126 kts | 66° |
| 2026-05-05 17:18 | 52.34950 | 13.48540 | 154 ft | 90 kts | 69° |
| 2026-05-05 17:18 | 52.35112 | 13.49233 | 154 ft | 45 kts | 69° |
| 2026-05-05 17:18 | 52.35218 | 13.49668 | 154 ft | 34 kts | 68° |
| 2026-05-05 17:19 | 52.35324 | 13.49914 | 154 ft | 25 kts | 45° |
| 2026-05-05 17:19 | 52.35454 | 13.50096 | 154 ft | 19 kts | 39° |
| 2026-05-05 17:19 | 52.35470 | 13.50118 | 154 ft | 0 kts | 39° |
| 2026-05-05 17:21 | 52.35479 | 13.50131 | 154 ft | 7 kts | 39° |
| 2026-05-05 17:21 | 52.35526 | 13.50192 | 154 ft | 10 kts | 39° |
| 2026-05-05 17:22 | 52.35616 | 13.50369 | 154 ft | 8 kts | 67° |
| 2026-05-05 17:22 | 52.35640 | 13.50467 | 154 ft | 12 kts | 69° |
| 2026-05-05 17:22 | 52.35675 | 13.50616 | 154 ft | 15 kts | 68° |
| 2026-05-05 17:22 | 52.35711 | 13.50770 | 154 ft | 15 kts | 69° |
| 2026-05-05 17:23 | 52.35799 | 13.50808 | 155 ft | 14 kts | 342° |
| 2026-05-05 17:23 | 52.35893 | 13.50778 | 155 ft | 14 kts | 27° |
| 2026-05-05 17:23 | 52.35939 | 13.50916 | 155 ft | 14 kts | 69° |
| 2026-05-05 17:23 | 52.35977 | 13.51074 | 155 ft | 15 kts | 69° |
| 2026-05-05 17:24 | 52.36016 | 13.51239 | 155 ft | 16 kts | 68° |
| 2026-05-05 17:24 | 52.36051 | 13.51386 | 155 ft | 5 kts | 65° |
| 2026-05-05 17:24 | 52.36078 | 13.51393 | 155 ft | 4 kts | 349° |
| 2026-05-05 17:24 | 52.36101 | 13.51380 | 155 ft | 3 kts | 340° |
| 2026-05-05 17:25 | 52.36120 | 13.51368 | 155 ft | 2 kts | 338° |
| 2026-05-05 17:25 | 52.36123 | 13.51366 | 155 ft | 1 kts | 339° |
| 2026-05-05 17:25 | 52.36130 | 13.51362 | 155 ft | 1 kts | 339° |
| 2026-05-05 17:25 | 52.36134 | 13.51359 | 155 ft | 0 kts | 339° |
| 2026-05-05 17:26 | 52.36138 | 13.51357 | 155 ft | 0 kts | 339° |